createdAt,value
2023-05-02T00:02:44.394Z,12.16
2023-05-02T00:07:48.760Z,11.63
2023-05-02T00:12:51.550Z,12.29
2023-05-02T00:17:54.352Z,12.01
2023-05-02T00:22:58.021Z,12.09
2023-05-02T00:28:04.825Z,12.11
2023-05-02T00:33:07.839Z,11.44
2023-05-02T00:38:10.521Z,12.41
2023-05-02T00:43:13.293Z,12.35
2023-05-02T00:48:16.038Z,11.52
2023-05-02T00:53:18.844Z,11.82
2023-05-02T00:58:21.612Z,12.13
2023-05-02T01:03:40.590Z,12.22
2023-05-02T01:09:47.379Z,12.61
2023-05-02T01:14:55.931Z,11.71
2023-05-02T01:20:06.679Z,12.46
2023-05-02T01:25:17.950Z,12.62
2023-05-02T01:30:22.348Z,11.15
2023-05-02T01:35:26.969Z,11.30
2023-05-02T01:40:30.879Z,11.35
2023-05-02T01:45:36.688Z,12.29
2023-05-02T01:50:42.938Z,12.12
2023-05-02T01:55:47.412Z,12.20
2023-05-02T02:00:50.413Z,11.63
2023-05-02T02:05:55.288Z,12.10
2023-05-02T02:11:12.672Z,12.00
2023-05-02T02:16:32.054Z,11.67
2023-05-02T02:21:37.022Z,11.13
2023-05-02T02:26:39.560Z,11.89
2023-05-02T02:31:42.272Z,10.46
2023-05-02T02:36:47.504Z,11.93
2023-05-02T02:42:19.621Z,11.80
2023-05-02T02:47:57.077Z,11.84
2023-05-02T02:53:16.258Z,11.79
2023-05-02T02:58:37.829Z,11.91
2023-05-02T03:03:42.573Z,11.58
2023-05-02T03:08:47.043Z,12.01
2023-05-02T03:13:49.780Z,11.51
2023-05-02T03:18:53.450Z,11.11
2023-05-02T03:23:56.250Z,11.32
2023-05-02T03:28:59.287Z,12.05
2023-05-02T03:34:10.775Z,11.84
2023-05-02T03:39:13.526Z,11.45
2023-05-02T03:44:16.186Z,11.70
2023-05-02T03:49:20.442Z,10.54
2023-05-02T03:54:23.842Z,11.49
2023-05-02T03:59:26.523Z,11.86
2023-05-02T04:04:29.686Z,12.15
2023-05-02T04:09:32.397Z,12.21
2023-05-02T04:14:35.598Z,12.00
2023-05-02T04:19:38.160Z,11.62
2023-05-02T04:24:41.290Z,11.38
2023-05-02T04:29:54.840Z,12.27
2023-05-02T04:34:57.378Z,10.84
2023-05-02T04:40:00.388Z,12.13
2023-05-02T04:45:03.297Z,12.07
2023-05-02T04:50:06.688Z,12.25
2023-05-02T04:55:09.642Z,12.01
2023-05-02T05:00:12.925Z,11.63
2023-05-02T05:05:25.616Z,12.09
2023-05-02T05:10:28.943Z,12.16
2023-05-02T05:15:31.474Z,11.18
2023-05-02T05:20:34.517Z,11.72
2023-05-02T05:25:37.437Z,11.30
2023-05-02T05:30:50.091Z,10.60
2023-05-02T05:35:52.759Z,11.34
2023-05-02T05:40:55.652Z,11.99
2023-05-02T05:45:58.637Z,11.86
2023-05-02T05:51:06.325Z,12.10
2023-05-02T05:56:15.411Z,11.52
2023-05-02T06:01:18.179Z,12.04
2023-05-02T06:06:20.724Z,11.82
2023-05-02T06:11:23.401Z,11.37
2023-05-02T06:16:26.182Z,12.06
2023-05-02T06:21:29.202Z,12.08
2023-05-02T06:26:41.760Z,12.08
2023-05-02T06:31:44.450Z,12.12
2023-05-02T06:36:47.143Z,11.96
2023-05-02T06:41:49.736Z,11.84
2023-05-02T06:46:52.483Z,12.01
2023-05-02T06:51:55.157Z,11.74
2023-05-02T06:56:58.057Z,12.00
2023-05-02T07:02:01.009Z,11.79
2023-05-02T07:07:14.255Z,11.77
2023-05-02T07:12:17.093Z,11.46
2023-05-02T07:17:20.434Z,10.87
2023-05-02T07:22:22.984Z,11.70
2023-05-02T07:27:26.016Z,11.40
2023-05-02T07:32:28.964Z,12.23
2023-05-02T07:37:36.176Z,11.71
2023-05-02T07:42:39.072Z,11.73
2023-05-02T07:48:00.508Z,12.29
2023-05-02T07:53:03.446Z,12.17
2023-05-02T07:58:16.126Z,12.33
2023-05-02T08:03:18.932Z,12.55
2023-05-02T08:08:21.566Z,12.08
2023-05-02T08:13:24.525Z,11.69
2023-05-02T08:18:27.283Z,11.33
2023-05-02T08:23:30.007Z,12.36
2023-05-02T08:28:32.957Z,12.53
2023-05-02T08:33:35.926Z,12.40
2023-05-02T08:38:38.753Z,11.86
2023-05-02T08:43:42.032Z,12.59
2023-05-02T08:48:46.616Z,12.59
2023-05-02T08:53:51.204Z,12.37
2023-05-02T08:58:53.807Z,12.43
2023-05-02T09:03:59.193Z,12.28
2023-05-02T09:09:02.027Z,11.35
2023-05-02T09:14:16.653Z,12.86
2023-05-02T09:19:26.965Z,12.92
2023-05-02T09:24:30.491Z,11.63
2023-05-02T09:29:38.870Z,12.52
2023-05-02T09:34:42.051Z,13.23
2023-05-02T09:40:07.246Z,13.11
2023-05-02T09:45:10.603Z,13.01
2023-05-02T09:50:13.615Z,12.93
2023-05-02T09:55:23.289Z,13.07
2023-05-02T10:00:45.892Z,13.56
2023-05-02T10:05:55.243Z,13.71
2023-05-02T10:14:01.368Z,13.74
2023-05-02T10:19:10.016Z,13.84
2023-05-02T10:24:13.947Z,13.22
2023-05-02T10:29:31.068Z,13.18
2023-05-02T10:34:34.906Z,14.24
2023-05-02T10:39:38.841Z,14.46
2023-05-02T10:44:43.048Z,14.60
2023-05-02T10:50:03.850Z,14.70
2023-05-02T10:55:24.930Z,14.63
2023-05-02T11:00:27.678Z,14.70
2023-05-02T11:05:30.594Z,13.90
2023-05-02T11:10:35.901Z,14.54
2023-05-02T11:15:41.337Z,14.49
2023-05-02T11:20:45.595Z,14.22
2023-05-02T11:25:49.064Z,14.24
2023-05-02T11:30:51.824Z,12.69
2023-05-02T11:35:54.611Z,12.35
2023-05-02T11:40:59.775Z,12.73
2023-05-02T11:46:08.487Z,13.81
2023-05-02T11:51:11.853Z,14.09
2023-05-02T11:56:14.701Z,14.01
2023-05-02T12:01:27.572Z,14.04
2023-05-02T12:06:30.443Z,13.29
2023-05-02T12:11:33.206Z,12.39
2023-05-02T12:16:36.282Z,14.15
2023-05-02T12:21:39.053Z,13.18
2023-05-02T12:26:41.958Z,11.74
2023-05-02T12:31:52.805Z,13.09
2023-05-02T12:36:55.788Z,11.66
2023-05-02T12:41:58.678Z,12.81
2023-05-02T12:47:02.167Z,12.89
2023-05-02T12:52:13.370Z,12.23
2023-05-02T12:57:26.794Z,12.79
2023-05-02T13:02:29.499Z,12.66
2023-05-02T13:07:32.346Z,12.91
2023-05-02T13:12:38.016Z,12.74
2023-05-02T13:17:41.296Z,12.88
2023-05-02T13:22:43.876Z,13.04
2023-05-02T13:27:55.515Z,12.78
2023-05-02T13:32:59.734Z,13.15
2023-05-02T13:38:02.537Z,13.14
2023-05-02T13:43:05.323Z,13.17
2023-05-02T13:48:08.211Z,13.24
2023-05-02T13:53:10.950Z,13.32
2023-05-02T13:58:13.615Z,13.30
2023-05-02T14:03:17.124Z,12.94
2023-05-02T14:08:24.487Z,12.99
2023-05-02T14:13:37.152Z,13.26
2023-05-02T14:18:39.871Z,13.37
2023-05-02T14:23:42.622Z,13.26
2023-05-02T14:28:45.256Z,13.45
2023-05-02T14:33:48.203Z,13.17
2023-05-02T14:38:50.807Z,12.30
2023-05-02T14:44:04.689Z,13.59
2023-05-02T14:49:07.316Z,13.64
2023-05-02T14:54:09.833Z,13.64
2023-05-02T14:59:15.632Z,13.32
2023-05-02T15:04:20.273Z,13.52
2023-05-02T15:09:23.108Z,13.43
2023-05-02T15:14:25.687Z,13.45
2023-05-02T15:19:28.811Z,13.29
2023-05-02T15:24:31.773Z,13.53
2023-05-02T15:29:35.198Z,13.52
2023-05-02T15:34:37.778Z,13.43
2023-05-02T15:39:47.772Z,13.34
2023-05-02T15:45:00.351Z,13.38
2023-05-02T15:50:03.352Z,13.60
2023-05-02T15:55:06.659Z,13.63
2023-05-02T16:00:12.229Z,13.37
2023-05-02T16:05:14.984Z,13.38
2023-05-02T16:10:17.523Z,13.52
2023-05-02T16:15:21.260Z,13.53
2023-05-02T16:20:23.889Z,13.57
2023-05-02T16:25:26.638Z,13.51
2023-05-02T16:30:29.361Z,13.54
2023-05-02T16:35:32.005Z,13.19
2023-05-02T16:40:34.952Z,13.91
2023-05-02T16:45:37.516Z,13.26
2023-05-02T16:50:40.044Z,13.59
2023-05-02T16:55:42.637Z,13.74
2023-05-02T17:04:39.674Z,13.47
2023-05-02T17:09:44.359Z,13.74
2023-05-02T17:14:47.879Z,13.74
2023-05-02T17:19:51.561Z,13.72
2023-05-02T17:24:55.656Z,12.83
2023-05-02T17:29:59.553Z,12.57
2023-05-02T17:35:09.932Z,13.70
2023-05-02T17:40:13.470Z,13.62
2023-05-02T17:45:17.601Z,12.83
2023-05-02T17:50:20.928Z,13.39
2023-05-02T17:55:38.017Z,13.67
2023-05-02T18:00:52.125Z,13.08
2023-05-02T18:05:55.722Z,13.53
2023-05-02T18:11:00.776Z,13.49
2023-05-02T18:21:10.573Z,13.55
2023-05-02T18:26:14.862Z,12.42
2023-05-02T18:31:18.511Z,13.16
2023-05-02T18:36:29.446Z,13.45
2023-05-02T18:41:35.590Z,12.27
2023-05-02T18:46:39.188Z,12.61
2023-05-02T18:56:47.825Z,13.19
2023-05-02T19:01:51.817Z,12.56
2023-05-02T19:06:55.904Z,13.62
2023-05-02T19:11:59.346Z,12.35
2023-05-02T19:17:03.175Z,12.59
2023-05-02T19:22:06.730Z,13.17
2023-05-02T19:27:10.624Z,13.30
2023-05-02T19:32:15.292Z,12.84
2023-05-02T19:37:18.867Z,13.68
2023-05-02T19:42:32.158Z,13.47
2023-05-02T19:47:35.548Z,13.68
2023-05-02T19:52:42.513Z,13.36
2023-05-02T19:57:45.898Z,12.66
2023-05-02T20:02:51.331Z,12.43
2023-05-02T20:07:54.994Z,11.43
2023-05-02T20:13:05.671Z,12.86
2023-05-02T20:18:10.079Z,12.35
2023-05-02T20:23:14.210Z,12.83
2023-05-02T20:28:27.631Z,12.23
2023-05-02T20:33:41.606Z,11.37
2023-05-02T20:38:48.706Z,12.34
2023-05-02T20:43:52.484Z,11.84
2023-05-02T20:48:55.252Z,10.96
2023-05-02T20:53:58.250Z,11.62
2023-05-02T20:59:00.920Z,11.40
2023-05-02T21:04:05.028Z,11.57
2023-05-02T21:09:10.130Z,11.28
2023-05-02T21:14:12.762Z,10.60
2023-05-02T21:19:25.549Z,10.93
2023-05-02T21:24:28.217Z,10.16
2023-05-02T21:29:30.732Z,10.80
2023-05-02T21:34:33.451Z,10.34
2023-05-02T21:39:36.200Z,10.23
2023-05-02T21:44:38.857Z,9.82
2023-05-02T21:49:41.569Z,9.84
2023-05-02T21:54:47.987Z,9.80
2023-05-02T21:59:50.693Z,10.84
2023-05-02T22:04:53.373Z,10.57
2023-05-02T22:09:56.018Z,9.91
2023-05-02T22:14:58.811Z,9.73
2023-05-02T22:20:03.164Z,9.98
2023-05-02T22:25:06.941Z,10.80
2023-05-02T22:30:10.813Z,10.20
2023-05-02T22:35:13.368Z,10.78
2023-05-02T22:40:15.944Z,9.97
2023-05-02T22:45:18.996Z,9.98
2023-05-02T22:50:22.427Z,10.61
2023-05-02T22:55:39.328Z,10.74
2023-05-02T23:00:42.269Z,9.81
2023-05-02T23:05:45.022Z,9.93
2023-05-02T23:11:07.675Z,10.43
2023-05-02T23:16:10.394Z,10.20
2023-05-02T23:21:17.253Z,10.74
2023-05-02T23:26:19.801Z,9.96
2023-05-02T23:31:22.460Z,10.37
2023-05-02T23:36:43.488Z,10.33
2023-05-02T23:41:46.298Z,10.39
2023-05-02T23:46:51.273Z,10.07
2023-05-02T23:51:53.990Z,9.85
2023-05-02T23:56:57.725Z,10.06
